Time;durP1;ratioP1;P1;durP2;ratioP2;P2;SDS_P1;SDS_P2;PMS_P1;PMS_P2;Temp;Humidity;BMP_temperature;BMP_pressure;BME280_temperature;BME280_humidity;BME280_pressure;Samples;Min_cycle;Max_cycle;Signal;HPM_P1;HPM_P2
2022/11/08 00:02:24;;;;;;;12.25;3.20;;;12.50;99.90;;;;;;5051621;28;20052;-78
2022/11/08 00:04:49;;;;;;;18.30;2.45;;;12.80;99.90;;;;;;5069483;28;20043;-78
2022/11/08 00:15:28;;;;;;;17.13;2.75;;;12.50;99.90;;;;;;5069435;28;20132;-78
2022/11/08 00:17:55;;;;;;;17.50;3.42;;;12.70;99.90;;;;;;5052128;28;20083;-78
2022/11/08 00:20:21;;;;;;;15.95;2.80;;;12.60;99.90;;;;;;5050937;28;20498;-80
2022/11/08 00:22:46;;;;;;;13.95;2.50;;;12.60;99.90;;;;;;5069040;28;20131;-77
2022/11/08 00:25:12;;;;;;;16.35;2.92;;;12.60;99.90;;;;;;5051267;28;20074;-79
2022/11/08 00:27:37;;;;;;;11.07;2.40;;;12.70;99.90;;;;;;5069014;28;20041;-78
2022/11/08 00:30:04;;;;;;;14.93;2.90;;;12.60;99.90;;;;;;5062352;28;20056;-76
2022/11/08 00:32:29;;;;;;;9.75;2.25;;;12.60;99.90;;;;;;5069325;28;20060;-76
2022/11/08 00:34:55;;;;;;;15.57;2.72;;;12.60;99.90;;;;;;5069035;28;20037;-75
2022/11/08 00:37:21;;;;;;;16.77;3.15;;;12.60;99.90;;;;;;5067897;28;20048;-80
2022/11/08 00:39:47;;;;;;;14.93;3.22;;;12.60;99.90;;;;;;5071641;28;20044;-76
2022/11/08 00:42:13;;;;;;;20.20;3.25;;;12.60;99.90;;;;;;5073452;28;20469;-76
2022/11/08 00:44:39;;;;;;;16.27;2.95;;;12.60;99.90;;;;;;5071732;28;20056;-79
2022/11/08 00:47:05;;;;;;;17.52;2.92;;;12.50;99.90;;;;;;5073428;28;20389;-74
2022/11/08 00:49:31;;;;;;;13.35;2.60;;;12.70;99.90;;;;;;5071598;28;20130;-78
2022/11/08 00:51:57;;;;;;;17.02;2.58;;;12.80;99.90;;;;;;5073120;28;20394;-77
2022/11/08 00:54:22;;;;;;;15.98;2.30;;;12.60;99.90;;;;;;5071341;28;20040;-78
2022/11/08 00:56:48;;;;;;;8.77;2.20;;;12.60;99.90;;;;;;5072813;28;20044;-78
2022/11/08 00:59:15;;;;;;;11.48;2.28;;;12.60;99.90;;;;;;5071474;28;20059;-77
2022/11/08 01:01:41;;;;;;;17.00;2.80;;;12.60;99.90;;;;;;5071212;28;20055;-79
2022/11/08 01:04:09;;;;;;;15.23;2.83;;;12.60;99.90;;;;;;5072885;28;20048;-79
2022/11/08 01:06:35;;;;;;;19.65;2.47;;;12.60;99.90;;;;;;5071365;28;20098;-80
2022/11/08 01:09:03;;;;;;;13.90;2.15;;;12.60;99.90;;;;;;5072130;28;20049;-80
2022/11/08 01:11:29;;;;;;;16.08;2.97;;;12.60;99.90;;;;;;5072741;28;20048;-78
2022/11/08 01:13:57;;;;;;;10.55;2.35;;;12.90;99.90;;;;;;5070942;28;20158;-79
2022/11/08 01:16:25;;;;;;;10.38;2.30;;;12.60;99.90;;;;;;5072693;28;20410;-80
2022/11/08 01:18:53;;;;;;;16.25;2.72;;;12.60;99.90;;;;;;5072757;28;20059;-79
2022/11/08 01:21:19;;;;;;;11.50;2.47;;;12.50;99.90;;;;;;5071380;28;20344;-79
2022/11/08 01:23:45;;;;;;;10.27;2.10;;;12.90;99.90;;;;;;5072170;28;20076;-81
2022/11/08 01:26:17;;;;;;;11.55;2.38;;;12.70;99.90;;;;;;5072419;28;20048;-81
2022/11/08 01:28:43;;;;;;;12.25;2.75;;;12.50;99.90;;;;;;5074460;28;20048;-79
2022/11/08 01:31:11;;;;;;;12.10;2.33;;;12.50;99.90;;;;;;5092524;28;20544;-77
2022/11/08 01:33:37;;;;;;;13.10;2.85;;;12.40;99.90;;;;;;5074437;28;20102;-77
2022/11/08 01:36:08;;;;;;;10.23;2.17;;;12.50;99.90;;;;;;5074481;28;20079;-79
2022/11/08 01:38:34;;;;;;;12.27;2.55;;;12.40;99.90;;;;;;5090609;28;20036;-81
2022/11/08 01:41:00;;;;;;;10.68;2.53;;;12.30;99.90;;;;;;5092130;28;20487;-78
2022/11/08 01:43:28;;;;;;;12.20;2.38;;;12.30;99.90;;;;;;5092240;28;20055;-78
2022/11/08 01:46:18;;;;;;;12.57;2.67;;;12.30;99.90;;;;;;5074312;28;20363;-78
2022/11/08 01:48:47;;;;;;;13.13;2.60;;;12.30;99.90;;;;;;5092582;28;20048;-78
2022/11/08 01:51:15;;;;;;;14.68;2.53;;;12.30;99.90;;;;;;5091377;28;20477;-76
2022/11/08 01:53:42;;;;;;;12.23;3.03;;;12.30;99.90;;;;;;5092501;28;20059;-76
2022/11/08 01:56:09;;;;;;;13.40;2.28;;;12.20;99.90;;;;;;5092495;28;20443;-77
2022/11/08 01:58:37;;;;;;;18.20;2.25;;;12.20;99.90;;;;;;5092841;28;20414;-78
2022/11/08 02:01:02;;;;;;;13.65;2.15;;;12.20;99.90;;;;;;5092108;28;20464;-79
2022/11/08 02:03:32;;;;;;;9.48;2.00;;;12.20;99.90;;;;;;5074078;28;20047;-78
2022/11/08 02:05:58;;;;;;;13.02;2.35;;;12.20;99.90;;;;;;5091897;28;20440;-76
2022/11/08 02:08:33;;;;;;;13.13;2.65;;;12.60;99.90;;;;;;5078220;28;20040;-75
2022/11/08 02:10:59;;;;;;;10.77;2.38;;;12.20;99.90;;;;;;5071619;28;20097;-76
2022/11/08 02:13:27;;;;;;;9.43;2.30;;;12.20;99.90;;;;;;5053546;28;20037;-79
2022/11/08 02:15:53;;;;;;;10.35;2.17;;;12.20;99.90;;;;;;5074746;28;20067;-78
2022/11/08 02:18:22;;;;;;;13.95;2.25;;;12.50;99.90;;;;;;5072935;28;20506;-75
2022/11/08 02:21:04;;;;;;;9.15;2.30;;;12.10;99.90;;;;;;5091608;28;20055;-74
2022/11/08 02:23:44;;;;;;;16.25;2.33;;;12.20;99.90;;;;;;5073533;28;20048;-77
2022/11/08 02:26:10;;;;;;;12.15;2.00;;;12.10;99.90;;;;;;5091519;28;20083;-76
2022/11/08 02:28:40;;;;;;;11.40;2.13;;;12.30;99.90;;;;;;5091388;28;20475;-78
2022/11/08 02:31:11;;;;;;;13.02;2.47;;;12.10;99.90;;;;;;5073081;28;20125;-77
2022/11/08 02:33:38;;;;;;;13.52;2.05;;;12.10;99.90;;;;;;5091465;28;20048;-77
2022/11/08 02:36:05;;;;;;;9.07;2.97;;;12.00;99.90;;;;;;5073529;28;20376;-78
2022/11/08 02:38:33;;;;;;;14.65;2.60;;;12.00;99.90;;;;;;5077052;28;20050;-78
2022/11/08 02:40:58;;;;;;;6.20;2.22;;;12.00;99.90;;;;;;5070968;28;20048;-77
2022/11/08 02:43:24;;;;;;;12.27;2.20;;;12.00;99.90;;;;;;5053403;28;20579;-79
2022/11/08 02:45:51;;;;;;;11.27;2.38;;;11.90;99.90;;;;;;5071819;28;20060;-79
2022/11/08 02:48:18;;;;;;;16.50;3.58;;;11.90;99.90;;;;;;5052789;28;20053;-77
2022/11/08 02:50:44;;;;;;;15.18;2.70;;;11.90;99.90;;;;;;5071251;28;20079;-79
2022/11/08 02:53:10;;;;;;;7.47;2.30;;;11.80;99.90;;;;;;5071436;28;20048;-80
2022/11/08 02:55:36;;;;;;;12.95;2.28;;;11.80;99.90;;;;;;5071397;28;20052;-78
2022/11/08 02:58:02;;;;;;;9.75;2.45;;;11.80;99.90;;;;;;5052956;28;20040;-76
2022/11/08 03:00:28;;;;;;;15.18;2.10;;;11.80;99.90;;;;;;5071024;28;20076;-76
2022/11/08 03:02:55;;;;;;;10.55;2.25;;;11.70;99.90;;;;;;5071128;28;20487;-76
2022/11/08 03:05:22;;;;;;;9.73;2.22;;;11.80;99.90;;;;;;5059869;28;20048;-77
2022/11/08 03:07:48;;;;;;;12.45;2.28;;;11.70;99.90;;;;;;5090535;28;20039;-75
2022/11/08 03:10:15;;;;;;;12.60;2.40;;;12.00;99.90;;;;;;5072789;28;20059;-76
2022/11/08 03:12:41;;;;;;;15.02;2.25;;;11.60;99.90;;;;;;5090540;28;20040;-80
2022/11/08 03:15:08;;;;;;;9.88;2.28;;;11.70;99.90;;;;;;5083800;28;20505;-78
2022/11/08 03:17:34;;;;;;;14.63;2.30;;;11.60;99.90;;;;;;5090307;28;20062;-74
2022/11/08 03:19:59;;;;;;;10.95;2.15;;;11.60;99.90;;;;;;5090444;28;20040;-76
2022/11/08 03:22:26;;;;;;;10.43;2.25;;;11.60;99.90;;;;;;5057555;28;20048;-76
2022/11/08 03:24:51;;;;;;;16.60;3.50;;;11.50;99.90;;;;;;5070160;28;20046;-77
2022/11/08 03:27:18;;;;;;;14.27;2.45;;;11.70;99.90;;;;;;5051866;28;20053;-77
2022/11/08 03:29:47;;;;;;;8.35;2.15;;;11.60;99.90;;;;;;5080814;28;20052;-78
2022/11/08 03:32:14;;;;;;;12.38;2.38;;;11.50;99.90;;;;;;5090377;28;20403;-77
2022/11/08 03:34:39;;;;;;;10.73;2.60;;;11.40;99.90;;;;;;5072149;28;20101;-78
2022/11/08 03:37:06;;;;;;;18.73;2.70;;;11.40;99.90;;;;;;5086302;28;20048;-76
2022/11/08 03:39:31;;;;;;;16.55;2.63;;;11.40;99.90;;;;;;5049945;28;20084;-79
2022/11/08 03:42:01;;;;;;;14.52;2.47;;;11.40;99.90;;;;;;5048335;28;20085;-78
2022/11/08 03:44:27;;;;;;;13.80;2.67;;;11.70;99.90;;;;;;5066962;28;20103;-78
2022/11/08 03:46:53;;;;;;;12.32;2.25;;;11.50;99.90;;;;;;5069431;28;20475;-78
2022/11/08 03:49:18;;;;;;;12.43;2.33;;;11.30;99.90;;;;;;5055765;28;20124;-77
2022/11/08 03:51:44;;;;;;;12.13;2.00;;;11.30;99.90;;;;;;5049634;28;20049;-79
2022/11/08 03:54:10;;;;;;;11.55;2.55;;;11.30;99.90;;;;;;5049740;28;20071;-76
2022/11/08 03:56:35;;;;;;;9.02;2.70;;;11.20;99.90;;;;;;5049758;28;20120;-78
2022/11/08 03:59:01;;;;;;;7.43;2.22;;;11.20;99.90;;;;;;5052836;28;20380;-79
2022/11/08 04:01:26;;;;;;;12.43;2.22;;;11.20;99.90;;;;;;5061648;28;20079;-76
2022/11/08 04:03:52;;;;;;;9.73;2.67;;;11.20;99.90;;;;;;5049974;28;20111;-75
2022/11/08 04:06:18;;;;;;;9.95;2.80;;;11.20;99.90;;;;;;5068910;28;20048;-78
2022/11/08 04:08:43;;;;;;;10.32;2.30;;;11.20;99.90;;;;;;5051318;28;20052;-80
2022/11/08 04:16:37;;;;;;;11.52;2.50;;;11.10;99.90;;;;;;5069155;28;20109;-79
2022/11/08 04:21:48;;;;;;;8.35;2.55;;;11.10;99.90;;;;;;5051285;28;20060;-76
2022/11/08 04:24:14;;;;;;;10.93;2.42;;;11.10;99.90;;;;;;5069223;28;20114;-79
2022/11/08 04:26:40;;;;;;;9.32;2.80;;;11.00;99.90;;;;;;5051356;28;20432;-77
2022/11/08 04:29:07;;;;;;;12.77;2.30;;;11.00;99.90;;;;;;5068529;28;20475;-76
2022/11/08 04:31:33;;;;;;;11.90;2.72;;;11.00;99.90;;;;;;5088202;28;20095;-77
2022/11/08 04:33:59;;;;;;;11.55;2.40;;;11.00;99.90;;;;;;5089872;28;20090;-80
2022/11/08 04:36:24;;;;;;;10.27;2.40;;;11.00;99.90;;;;;;5071067;28;20128;-74
2022/11/08 04:38:51;;;;;;;7.25;2.25;;;11.00;99.90;;;;;;5089371;28;20048;-77
2022/11/08 04:41:22;;;;;;;8.13;2.15;;;10.90;99.90;;;;;;5071288;28;20044;-79
2022/11/08 04:43:48;;;;;;;11.75;3.10;;;11.00;99.90;;;;;;5061988;28;20549;-78
2022/11/08 04:46:17;;;;;;;11.70;2.42;;;10.90;99.90;;;;;;5052612;28;20086;-77
2022/11/08 04:48:43;;;;;;;8.43;2.70;;;10.90;99.90;;;;;;5082930;28;20394;-78
2022/11/08 04:51:18;;;;;;;12.10;2.67;;;10.90;99.90;;;;;;5071025;28;20130;-76
2022/11/08 04:53:44;;;;;;;8.52;2.10;;;10.90;99.90;;;;;;5089251;28;20042;-79
2022/11/08 04:56:14;;;;;;;8.77;2.55;;;10.90;99.90;;;;;;5070849;28;20039;-77
2022/11/08 04:58:42;;;;;;;10.00;2.40;;;10.90;99.90;;;;;;5088880;28;20067;-78
2022/11/08 05:01:10;;;;;;;10.88;2.63;;;10.90;99.90;;;;;;5078008;28;20072;-76
2022/11/08 05:03:36;;;;;;;13.73;2.72;;;10.80;99.90;;;;;;5050712;28;20143;-79
2022/11/08 05:06:04;;;;;;;8.48;2.45;;;10.90;99.90;;;;;;5068915;28;20127;-80
2022/11/08 05:08:30;;;;;;;10.27;2.45;;;10.80;99.90;;;;;;5081992;28;20047;-81
2022/11/08 05:11:00;;;;;;;6.65;2.22;;;10.80;99.90;;;;;;5070715;28;20391;-77
2022/11/08 05:13:26;;;;;;;9.63;2.30;;;10.80;99.90;;;;;;5082338;28;20032;-78
2022/11/08 05:15:51;;;;;;;10.85;2.17;;;10.80;99.90;;;;;;5065051;28;20371;-77
2022/11/08 05:18:17;;;;;;;10.23;2.70;;;10.80;99.90;;;;;;5067356;28;20066;-79
2022/11/08 05:23:27;;;;;;;12.57;2.17;;;10.80;99.90;;;;;;5047261;28;20143;-79
2022/11/08 05:25:54;;;;;;;10.43;2.42;;;10.80;99.90;;;;;;5049585;28;20391;-77
2022/11/08 05:28:20;;;;;;;13.18;2.42;;;11.00;99.90;;;;;;5052539;28;20468;-78
2022/11/08 05:30:56;;;;;;;8.98;2.10;;;10.80;99.90;;;;;;5073103;28;20125;-79
2022/11/08 05:33:22;;;;;;;6.97;2.53;;;10.70;99.90;;;;;;5092338;28;20093;-75
2022/11/08 05:35:47;;;;;;;12.13;2.47;;;10.70;99.90;;;;;;5074420;28;20434;-75
2022/11/08 05:38:13;;;;;;;6.15;2.00;;;10.90;99.90;;;;;;5074151;28;20127;-76
2022/11/08 05:40:39;;;;;;;9.38;1.83;;;10.70;99.90;;;;;;5092309;28;20087;-81
2022/11/08 05:43:05;;;;;;;14.13;2.33;;;10.70;99.90;;;;;;5091579;28;20046;-79
2022/11/08 05:45:31;;;;;;;9.45;2.10;;;10.80;99.90;;;;;;5073522;28;20406;-78
2022/11/08 05:48:02;;;;;;;8.38;1.90;;;10.70;99.90;;;;;;5091968;28;20465;-75
2022/11/08 05:50:34;;;;;;;8.40;2.10;;;10.70;99.90;;;;;;5073877;28;20392;-81
2022/11/08 05:53:00;;;;;;;10.77;2.65;;;10.70;99.90;;;;;;5091507;28;20055;-80
2022/11/08 05:55:25;;;;;;;9.30;2.20;;;10.70;99.90;;;;;;5073131;28;20044;-76
2022/11/08 05:57:51;;;;;;;11.35;2.53;;;10.70;99.90;;;;;;5092212;28;20441;-80
2022/11/08 06:00:17;;;;;;;11.20;2.13;;;10.60;99.90;;;;;;5092268;28;20044;-76
2022/11/08 06:02:43;;;;;;;9.13;2.20;;;10.60;99.90;;;;;;5091876;28;20044;-77
2022/11/08 06:05:09;;;;;;;6.93;1.80;;;10.60;99.90;;;;;;5091777;28;20101;-78
2022/11/08 06:07:35;;;;;;;13.30;2.28;;;10.80;99.90;;;;;;5091947;28;20181;-78
2022/11/08 06:10:01;;;;;;;10.32;2.03;;;10.60;99.90;;;;;;5073082;28;20433;-75
2022/11/08 06:12:27;;;;;;;9.18;2.03;;;10.50;99.90;;;;;;5073632;28;20060;-77
2022/11/08 06:14:53;;;;;;;7.88;1.98;;;10.60;99.90;;;;;;5091016;28;20055;-80
2022/11/08 06:17:18;;;;;;;11.02;1.85;;;10.50;99.90;;;;;;5073312;28;20383;-78
2022/11/08 06:19:44;;;;;;;5.97;1.95;;;10.50;99.90;;;;;;5073415;28;20075;-81
2022/11/08 06:22:10;;;;;;;14.48;2.20;;;10.50;99.90;;;;;;5091426;28;20086;-81
2022/11/08 06:24:36;;;;;;;9.35;2.10;;;10.50;99.90;;;;;;5070793;28;20128;-73
2022/11/08 06:27:01;;;;;;;9.23;2.35;;;10.50;99.90;;;;;;5077130;28;20048;-81
2022/11/08 06:29:27;;;;;;;8.15;1.92;;;10.50;99.90;;;;;;5073218;28;20052;-79
2022/11/08 06:31:53;;;;;;;9.75;1.90;;;10.50;99.90;;;;;;5072790;28;20060;-76
2022/11/08 06:34:19;;;;;;;7.82;1.90;;;10.50;99.90;;;;;;5072679;28;20079;-80
2022/11/08 06:36:44;;;;;;;8.65;2.00;;;10.50;99.90;;;;;;5091193;28;20056;-78
2022/11/08 06:39:10;;;;;;;5.90;1.92;;;10.50;99.90;;;;;;5091278;28;20094;-76
2022/11/08 06:41:35;;;;;;;7.00;1.95;;;10.50;99.90;;;;;;5090879;28;20040;-81
2022/11/08 06:44:01;;;;;;;7.93;2.10;;;10.60;99.90;;;;;;5091275;28;20124;-79
2022/11/08 06:46:27;;;;;;;6.82;2.00;;;10.50;99.90;;;;;;5072736;28;20410;-75
2022/11/08 06:48:52;;;;;;;10.63;2.17;;;10.80;99.90;;;;;;5072449;28;20048;-75
2022/11/08 06:51:20;;;;;;;10.43;2.05;;;10.60;99.90;;;;;;5072903;28;20143;-75
2022/11/08 06:53:45;;;;;;;9.10;2.30;;;10.60;99.90;;;;;;5091270;28;20044;-77
2022/11/08 06:56:11;;;;;;;12.52;3.08;;;10.60;99.90;;;;;;5056237;28;20043;-75
2022/11/08 06:58:37;;;;;;;11.27;2.75;;;10.70;99.90;;;;;;5090981;28;20517;-76
2022/11/08 07:01:05;;;;;;;6.43;1.60;;;11.00;99.90;;;;;;5090388;28;20502;-74
2022/11/08 07:03:31;;;;;;;5.57;1.88;;;10.70;99.90;;;;;;5090647;28;20052;-75
2022/11/08 07:05:57;;;;;;;6.82;1.80;;;10.70;99.90;;;;;;5090923;28;20051;-79
2022/11/08 07:08:22;;;;;;;10.45;2.22;;;10.70;99.90;;;;;;5090519;28;20563;-75
2022/11/08 07:10:48;;;;;;;10.07;2.30;;;10.80;99.90;;;;;;5068993;28;20070;-75
2022/11/08 07:13:15;;;;;;;8.93;2.35;;;10.80;99.90;;;;;;5080793;28;20140;-75
2022/11/08 07:15:41;;;;;;;7.47;2.28;;;10.80;99.90;;;;;;5090514;28;20507;-75
2022/11/08 07:18:10;;;;;;;8.45;2.60;;;10.80;99.90;;;;;;5090721;28;20127;-75
2022/11/08 07:20:37;;;;;;;10.32;2.60;;;11.20;99.90;;;;;;5090885;28;20044;-75
2022/11/08 07:23:03;;;;;;;9.85;2.58;;;11.20;99.90;;;;;;5090750;28;20123;-75
2022/11/08 07:25:29;;;;;;;12.05;2.63;;;10.90;99.90;;;;;;5090425;28;20161;-78
2022/11/08 07:27:56;;;;;;;8.05;2.67;;;10.90;99.90;;;;;;5090166;28;20045;-79
2022/11/08 07:30:23;;;;;;;6.93;2.50;;;10.90;99.90;;;;;;5089940;28;20463;-78
2022/11/08 07:32:49;;;;;;;8.63;2.58;;;10.90;99.90;;;;;;5090577;28;20044;-78
2022/11/08 07:35:14;;;;;;;10.73;2.70;;;10.90;99.90;;;;;;5090303;28;20062;-75
2022/11/08 07:37:40;;;;;;;11.77;2.78;;;11.00;99.90;;;;;;5090406;28;20059;-74
2022/11/08 07:40:06;;;;;;;9.63;2.33;;;11.00;99.90;;;;;;5090164;28;20040;-73
2022/11/08 07:42:36;;;;;;;9.15;2.13;;;11.00;99.90;;;;;;5089613;28;20051;-76
2022/11/08 07:45:02;;;;;;;8.50;2.80;;;11.00;99.90;;;;;;5089965;28;20483;-74
2022/11/08 07:47:28;;;;;;;9.48;2.50;;;11.10;99.90;;;;;;5071864;28;20056;-74
2022/11/08 07:49:54;;;;;;;9.88;2.35;;;11.80;99.90;;;;;;5089131;28;20067;-77
2022/11/08 07:52:19;;;;;;;6.88;2.17;;;11.70;99.90;;;;;;5090134;28;20087;-76
2022/11/08 07:54:45;;;;;;;9.43;2.33;;;11.80;99.90;;;;;;5090133;28;20452;-75
2022/11/08 07:57:11;;;;;;;11.15;2.47;;;11.20;99.90;;;;;;5089867;28;20055;-76
2022/11/08 07:59:37;;;;;;;8.68;2.45;;;10.80;99.90;;;;;;5089657;28;20078;-76
2022/11/08 08:02:02;;;;;;;8.18;1.90;;;11.20;99.90;;;;;;5089733;28;20039;-77
2022/11/08 08:04:28;;;;;;;7.63;2.30;;;11.20;99.90;;;;;;5089457;28;20036;-73
2022/11/08 08:06:54;;;;;;;8.23;2.03;;;11.30;99.90;;;;;;5090183;28;20444;-74
2022/11/08 08:09:20;;;;;;;4.45;2.05;;;11.30;99.90;;;;;;5089897;28;20119;-76
2022/11/08 08:11:46;;;;;;;9.80;2.53;;;11.30;99.90;;;;;;5089297;28;20043;-76
2022/11/08 08:14:11;;;;;;;8.07;2.25;;;11.30;99.90;;;;;;5089928;28;20067;-75
2022/11/08 08:16:37;;;;;;;6.63;1.92;;;11.40;99.90;;;;;;5071770;28;20109;-75
2022/11/08 08:19:03;;;;;;;7.72;1.92;;;11.40;99.90;;;;;;5089976;28;20048;-79
2022/11/08 08:21:29;;;;;;;6.15;2.03;;;11.40;99.90;;;;;;5071937;28;20097;-74
2022/11/08 08:23:55;;;;;;;7.43;1.73;;;11.40;99.90;;;;;;5090160;28;20087;-75
2022/11/08 08:26:20;;;;;;;9.88;2.47;;;11.40;99.90;;;;;;5090019;28;20143;-74
2022/11/08 08:28:46;;;;;;;5.35;1.80;;;11.40;99.90;;;;;;5072224;28;20086;-75
2022/11/08 08:31:12;;;;;;;6.65;2.10;;;11.80;99.90;;;;;;5089273;28;20155;-76
2022/11/08 08:33:37;;;;;;;6.05;1.83;;;12.20;99.90;;;;;;5089697;28;20165;-74
2022/11/08 08:36:04;;;;;;;10.70;2.10;;;11.50;99.90;;;;;;5089189;28;20036;-76
2022/11/08 08:38:33;;;;;;;7.90;2.03;;;11.60;99.90;;;;;;5089404;28;20039;-74
2022/11/08 08:41:00;;;;;;;7.00;2.25;;;12.40;99.90;;;;;;5088161;28;20051;-76
2022/11/08 08:43:31;;;;;;;6.88;1.90;;;12.20;99.90;;;;;;5088953;28;20180;-76
2022/11/08 08:46:01;;;;;;;8.13;2.45;;;11.90;99.90;;;;;;5088340;28;20118;-76
2022/11/08 08:48:27;;;;;;;5.25;1.95;;;11.70;99.90;;;;;;5089437;28;20078;-75
2022/11/08 08:50:53;;;;;;;10.35;2.13;;;12.20;99.90;;;;;;5070877;28;20047;-74
2022/11/08 08:53:25;;;;;;;5.85;1.65;;;11.80;99.90;;;;;;5089522;28;20051;-75
2022/11/08 08:55:51;;;;;;;6.05;2.10;;;12.40;99.90;;;;;;5089550;28;20055;-76
2022/11/08 08:58:26;;;;;;;4.93;1.55;;;11.90;99.90;;;;;;5089266;28;20048;-75
2022/11/08 09:00:51;;;;;;;;;;;12.00;99.90;;;;;;5091571;28;20051;-75
2022/11/08 09:03:17;;;;;;;4.88;1.75;;;12.60;99.90;;;;;;5092509;28;19928;-74
2022/11/08 09:05:45;;;;;;;5.70;1.75;;;12.20;99.90;;;;;;5093195;28;20495;-75
2022/11/08 09:08:14;;;;;;;4.63;2.03;;;12.30;99.90;;;;;;5093474;28;20395;-75
2022/11/08 09:10:40;;;;;;;8.57;2.10;;;12.40;99.90;;;;;;5093284;28;20056;-73
2022/11/08 09:13:13;;;;;;;7.75;2.08;;;12.40;99.90;;;;;;5093583;28;20052;-73
2022/11/08 09:15:39;;;;;;;5.03;2.00;;;13.10;99.90;;;;;;5093458;28;20178;-74
2022/11/08 09:18:04;;;;;;;7.68;1.88;;;12.60;99.90;;;;;;5092408;28;20146;-73
2022/11/08 09:20:30;;;;;;;5.85;1.80;;;12.50;99.90;;;;;;5093071;28;20495;-75
2022/11/08 09:23:01;;;;;;;10.32;1.80;;;12.70;99.90;;;;;;5092631;28;20042;-74
2022/11/08 09:25:27;;;;;;;10.75;2.70;;;12.60;99.90;;;;;;5092716;28;20127;-75
2022/11/08 09:27:53;;;;;;;4.70;1.52;;;12.60;99.90;;;;;;5092376;28;20131;-75
2022/11/08 09:30:19;;;;;;;5.93;1.90;;;12.60;99.90;;;;;;5092551;28;20503;-75
2022/11/08 09:32:45;;;;;;;4.93;1.60;;;12.70;99.90;;;;;;5088386;28;20051;-75
2022/11/08 09:35:16;;;;;;;5.40;1.90;;;13.40;99.90;;;;;;5072292;28;20040;-76
2022/11/08 09:37:42;;;;;;;5.68;1.90;;;12.80;99.90;;;;;;5071003;28;20404;-76
2022/11/08 09:40:19;;;;;;;4.47;1.40;;;12.90;99.90;;;;;;5056393;28;20037;-74
2022/11/08 09:43:32;;;;;;;4.57;1.60;;;12.90;99.90;;;;;;5034274;28;20045;-75
2022/11/08 09:45:57;;;;;;;4.53;1.73;;;12.90;99.90;;;;;;5052300;28;20100;-75
2022/11/08 09:48:35;;;;;;;7.95;1.70;;;13.00;99.90;;;;;;5052255;28;20140;-75
2022/11/08 09:51:11;;;;;;;6.05;1.70;;;13.00;99.90;;;;;;5041668;28;20045;-73
2022/11/08 09:54:00;;;;;;;7.32;1.50;;;13.10;99.90;;;;;;5071220;28;20045;-75
2022/11/08 09:56:34;;;;;;;6.72;1.67;;;13.20;99.90;;;;;;5072644;28;20042;-74
2022/11/08 09:59:09;;;;;;;6.07;1.60;;;13.20;99.90;;;;;;5071166;28;20040;-73
2022/11/08 10:01:36;;;;;;;5.05;1.75;;;13.20;99.90;;;;;;5072066;28;20052;-75
2022/11/08 10:04:07;;;;;;;4.60;1.48;;;13.30;99.90;;;;;;5071906;28;20437;-76
2022/11/08 10:06:55;;;;;;;4.57;1.42;;;13.20;99.90;;;;;;5071827;28;20140;-75
2022/11/08 10:09:29;;;;;;;5.03;1.55;;;13.30;99.90;;;;;;5071582;28;20471;-74
2022/11/08 10:12:32;;;;;;;5.18;1.40;;;13.30;99.90;;;;;;5071380;28;20050;-75
2022/11/08 10:15:06;;;;;;;7.43;1.67;;;13.30;99.90;;;;;;5071639;28;20091;-76
2022/11/08 10:17:59;;;;;;;3.80;1.60;;;13.30;99.90;;;;;;5071575;28;20128;-76
2022/11/08 10:21:07;;;;;;;9.05;1.90;;;13.40;99.90;;;;;;5053609;28;20133;-75
2022/11/08 10:24:09;;;;;;;7.00;1.40;;;13.40;99.90;;;;;;4989504;28;20113;-75
2022/11/08 10:26:41;;;;;;;4.22;1.70;;;13.40;99.90;;;;;;4989915;28;20054;-77
2022/11/08 10:29:19;;;;;;;3.88;1.45;;;13.40;99.90;;;;;;4989810;28;20502;-74
2022/11/08 10:31:47;;;;;;;6.20;1.73;;;13.50;99.90;;;;;;4989499;28;20058;-78
2022/11/08 10:34:21;;;;;;;3.92;1.20;;;14.20;99.90;;;;;;4973135;28;20112;-76
2022/11/08 10:36:51;;;;;;;5.97;1.20;;;13.40;99.90;;;;;;4989221;28;20057;-75
2022/11/08 10:39:28;;;;;;;7.80;1.50;;;13.90;99.90;;;;;;4988985;28;20058;-75
2022/11/08 10:42:34;;;;;;;6.43;1.55;;;13.40;99.90;;;;;;4989372;28;20058;-76
2022/11/08 10:44:59;;;;;;;3.87;1.40;;;13.40;99.90;;;;;;4988761;28;20141;-74
2022/11/08 10:47:28;;;;;;;4.57;1.60;;;13.40;99.90;;;;;;4988690;28;20149;-73
2022/11/08 10:49:54;;;;;;;3.85;1.40;;;13.60;99.90;;;;;;4989026;28;20489;-75
2022/11/08 10:52:35;;;;;;;3.97;1.50;;;13.90;99.90;;;;;;4989128;28;20054;-73
2022/11/08 10:55:04;;;;;;;5.18;1.45;;;13.30;99.90;;;;;;4987950;28;20126;-74
2022/11/08 10:57:43;;;;;;;5.40;1.27;;;13.30;99.90;;;;;;4988596;28;20058;-74
2022/11/08 11:00:14;;;;;;;5.97;1.60;;;13.30;99.90;;;;;;5062360;28;20049;-74
2022/11/08 11:02:41;;;;;;;4.75;1.65;;;13.30;99.90;;;;;;5070716;28;20499;-75
2022/11/08 11:05:17;;;;;;;4.20;1.30;;;13.40;99.90;;;;;;5075503;28;20055;-73
2022/11/08 11:08:08;;;;;;;4.80;1.40;;;13.50;99.90;;;;;;5072134;28;20509;-73
2022/11/08 11:10:35;;;;;;;3.75;1.33;;;13.40;99.90;;;;;;5080895;28;20048;-74
2022/11/08 11:13:00;;;;;;;3.58;1.50;;;13.50;99.90;;;;;;5091042;28;20124;-75
2022/11/08 11:15:36;;;;;;;8.25;1.40;;;13.60;99.90;;;;;;5090212;28;20123;-72
2022/11/08 11:18:03;;;;;;;4.90;2.03;;;13.50;99.90;;;;;;5072263;28;20047;-76
2022/11/08 11:20:30;;;;;;;5.35;1.70;;;13.60;99.90;;;;;;5090155;28;20123;-74
2022/11/08 11:22:58;;;;;;;4.35;1.80;;;13.60;99.90;;;;;;5089598;28;20040;-74
2022/11/08 11:25:23;;;;;;;3.38;1.20;;;13.70;99.90;;;;;;5090084;28;20054;-75
2022/11/08 11:27:57;;;;;;;6.03;1.63;;;13.70;99.90;;;;;;5072461;28;20055;-75
2022/11/08 11:30:34;;;;;;;4.50;1.20;;;13.70;99.90;;;;;;5065184;28;20052;-75
2022/11/08 11:33:20;;;;;;;5.18;1.38;;;13.80;99.90;;;;;;5070053;28;20056;-75
2022/11/08 11:35:57;;;;;;;6.47;1.40;;;13.90;99.90;;;;;;5068594;28;20036;-76
2022/11/08 11:38:34;;;;;;;4.82;1.60;;;14.00;99.90;;;;;;5069009;28;20056;-76
2022/11/08 11:41:08;;;;;;;6.53;2.10;;;14.00;99.90;;;;;;5069843;28;20145;-74
2022/11/08 11:43:50;;;;;;;4.30;1.45;;;14.00;99.90;;;;;;5069836;28;20201;-75
2022/11/08 11:46:30;;;;;;;5.15;1.52;;;14.00;99.90;;;;;;5069773;28;20052;-75
2022/11/08 11:49:03;;;;;;;5.40;1.58;;;14.00;99.90;;;;;;5068770;28;20071;-75
2022/11/08 11:51:29;;;;;;;3.67;1.30;;;14.00;99.90;;;;;;5069597;28;20044;-77
2022/11/08 11:53:57;;;;;;;6.45;1.83;;;14.00;99.90;;;;;;5068450;28;20098;-74
2022/11/08 11:56:40;;;;;;;7.47;1.50;;;14.40;99.90;;;;;;5069290;28;20507;-75
2022/11/08 11:59:39;;;;;;;6.75;1.70;;;14.10;99.90;;;;;;5069488;28;20071;-76
2022/11/08 12:02:05;;;;;;;7.00;1.75;;;14.10;99.90;;;;;;5069825;28;20048;-74
2022/11/08 12:04:47;;;;;;;4.20;1.33;;;14.10;99.90;;;;;;5069780;28;20070;-75
2022/11/08 12:07:28;;;;;;;4.85;1.35;;;14.20;99.90;;;;;;5069461;28;20570;-76
2022/11/08 12:10:22;;;;;;;4.70;1.42;;;14.20;99.90;;;;;;5069764;28;20541;-76
2022/11/08 12:13:08;;;;;;;7.45;1.55;;;14.10;99.90;;;;;;5068973;28;20123;-78
2022/11/08 12:15:40;;;;;;;4.53;1.27;;;14.20;99.90;;;;;;5070123;28;20056;-76
2022/11/08 12:18:43;;;;;;;8.90;1.52;;;14.20;99.90;;;;;;5070212;28;20395;-77
2022/11/08 12:21:20;;;;;;;5.90;1.40;;;14.20;99.90;;;;;;5069601;28;20056;-77
2022/11/08 12:24:21;;;;;;;4.95;1.70;;;14.50;99.90;;;;;;5069306;28;20048;-77
2022/11/08 12:27:21;;;;;;;6.93;1.33;;;14.20;99.90;;;;;;5069115;28;20060;-76
2022/11/08 12:30:10;;;;;;;4.95;1.45;;;14.40;99.90;;;;;;5068732;28;20056;-76
2022/11/08 12:33:07;;;;;;;6.25;1.65;;;14.20;99.90;;;;;;5069515;28;20456;-77
2022/11/08 12:35:43;;;;;;;7.10;1.50;;;14.20;99.90;;;;;;5067425;28;20051;-76
2022/11/08 12:38:28;;;;;;;4.50;1.30;;;14.30;99.90;;;;;;5067749;28;20143;-78
2022/11/08 12:41:16;;;;;;;8.10;1.63;;;14.40;99.90;;;;;;5069397;28;20048;-77
2022/11/08 12:43:50;;;;;;;5.90;1.27;;;14.50;99.90;;;;;;5069320;28;20094;-77
2022/11/08 12:46:17;;;;;;;5.53;1.30;;;14.70;99.90;;;;;;5069313;28;20588;-76
2022/11/08 12:48:46;;;;;;;5.45;1.35;;;14.60;99.90;;;;;;5069522;28;20076;-77
2022/11/08 12:51:33;;;;;;;5.53;1.10;;;14.60;99.90;;;;;;5069201;28;20123;-77
2022/11/08 12:54:22;;;;;;;6.38;1.20;;;14.70;99.90;;;;;;5050745;28;20506;-76
2022/11/08 12:56:50;;;;;;;5.93;1.30;;;14.70;99.90;;;;;;5002826;28;20054;-76
2022/11/08 12:59:23;;;;;;;4.82;1.23;;;14.80;99.90;;;;;;5005933;28;20058;-76
2022/11/08 13:01:51;;;;;;;3.97;1.33;;;14.70;99.90;;;;;;4990393;28;20092;-76
2022/11/08 13:04:22;;;;;;;3.58;1.13;;;14.70;99.90;;;;;;5007513;28;20050;-75
2022/11/08 13:06:55;;;;;;;6.15;1.60;;;14.70;99.90;;;;;;5016995;28;20172;-74
2022/11/08 13:09:52;;;;;;;4.20;1.65;;;14.70;99.90;;;;;;5007315;28;20072;-75
2022/11/08 13:12:42;;;;;;;4.38;1.48;;;14.80;99.90;;;;;;5007414;28;20579;-76
2022/11/08 13:15:16;;;;;;;4.88;1.13;;;15.00;99.90;;;;;;4989625;28;20589;-76
2022/11/08 13:18:05;;;;;;;3.13;1.10;;;15.10;99.90;;;;;;4988072;28;20545;-78